AirNav   Pilot Hours Calculator
 
 1022 users online  

0L9 Echo Bay Airport
Overton, Nevada, USA

GOING TO OVERTON?


FAA INFORMATION EFFECTIVE 20 MAY 2021

Location

FAA Identifier: 0L9
Lat/Long: 36-18-39.7000N 114-27-50.0000W
36-18.661667N 114-27.833333W
36.3110278,-114.4638889
(estimated)
Elevation: 1535 ft. / 467.9 m (surveyed)
Variation: 14E (1985)
From city: 14 miles S of OVERTON, NV
Time zone: UTC -7 (UTC -8 during Standard Time)
Zip code: 89040

Airport Operations

Airport use: Open to the public
Control tower: no
ARTCC: LOS ANGELES CENTER
FSS: RENO FLIGHT SERVICE STATION
NOTAMs facility: RNO (NOTAM-D service available)
Attendance: ON CALL
MONITOR UNICOM 122.8 FOR TAXI SVC TO RESORT AREA.
Wind indicator: yes
Segmented circle: yes

Airport Communications

CTAF/UNICOM: 122.8

Nearby radio navigation aids

VOR radial/distance  VOR name  Freq  Var
BLDr031/27.1BOULDER CITY VORTAC116.7015E
MMMr182/28.9MORMON MESA VORTAC114.3016E
LASr053/36.4LAS VEGAS VORTAC116.9015E

Airport Services

Parking: tiedowns
Airframe service: NONE
Powerplant service: NONE
Bottled oxygen: NONE
Bulk oxygen: NONE

Runway Information

Runway 6/24

Dimensions: 3400 x 50 ft. / 1036 x 15 m
Surface: asphalt, in good condition
RWY ENDS LIPS & EDGES EXCEED 6 IN DROP OFFS. ABRUPT PAVEMENT EDGE LIPS EXCEED 8 IN ON BOTH SIDES OF THE RWY.
Weight bearing capacity: 
Single wheel: 12.5
RUNWAY 6  RUNWAY 24
Latitude: 36-18.607492N36-18.717037N
Longitude: 114-28.173280W114-27.494103W
Traffic pattern: leftright
Runway heading: 065 magnetic, 079 true245 magnetic, 259 true
Markings: basic, in fair conditionbasic, in fair condition
Runway end identifier lights: nono
Obstructions: 4 ft. fence, 315 ft. from runway, 28:1 slope to clear
3-4 FT BRUSH AND VEGETATION ON RWY ENDS.
4 ft. fence, 315 ft. from runway, 28:1 slope to clear
3-4 FT BRUSH AND VEGETATION ON RWY ENDS.

Airport Ownership and Management from official FAA records

Ownership: Publicly-owned
Owner: LAKE MEAD NATL REC AREA
601 NEVADA HWY
BOULDER CITY, NV 89005
Phone (702) 293-8971
Manager: SCOTT TAYLOR
601 NEVADA HWY
BOULDER CITY, NV 89005
Phone (702) 293-8971
24 HR EMERGENCY NUMBER (702) 293-8932.

Airport Operational Statistics

Aircraft operations: avg 50/month *
100% transient general aviation
* for 12-month period ending 31 January 2018

Additional Remarks

LIVESTOCK ON & INVOF ARPT.
PARALLEL TWY ROUGH INFREQUENTLY USED.
FOR CD CTC LOS ANGELES ARTCC AT 661-575-2079.

Instrument Procedures

There are no published instrument procedures at 0L9.

Some nearby airports with instrument procedures:

KLSV - Nellis Air Force Base (28 nm W)
KBVU - Boulder City Municipal Airport (29 nm SW)
KVGT - North Las Vegas Airport (36 nm W)
KLAS - Mc Carran International Airport (36 nm W)
67L - Mesquite Airport (37 nm NE)
 
Loc | Ops | Rwys | IFR | FBO | Links
Com | Nav | Svcs | Stats | Notes
Area around 0L9 (Echo Bay Airport)
 
Road maps at: MapQuest Bing Google
 
Aerial photo
WARNING: Photo may not be current or correct
Aerial photo of 0L9 (Echo Bay Airport)
Do you have a better or more recent aerial photo of Echo Bay Airport that you would like to share? If so, please send us your photo.

 
Sectional chart

 
Airport distance calculator
Flying to Echo Bay Airport? Find the distance to fly.

From to 0L9

Sunrise and sunset
Times for 12-Jun-2021
 Local
(UTC-7)
 Zulu
(UTC)
Morning civil twilight04:5011:50
Sunrise05:2112:21
Sunset19:5502:55
Evening civil twilight20:2503:25

Current date and time
Zulu (UTC)  12-Jun-2021 21:34:39
Local (UTC-7)  12-Jun-2021 14:34:39
 
METAR
KLSV 
27nm W 
122058Z AUTO 28004KT 10SM CLR 37/M12 A2982 RMK AO2 SLP074 T03721116 57017 $
KBVU 
29nm SW 
122115Z AUTO 05003KT 10SM CLR 37/M15 A2985 RMK AO2
KLAS 
36nm W 
122056Z 06007KT 10SM CLR 37/M10 A2986 RMK AO2 SLP081 T03721100 58016
KVGT 
36nm W 
122053Z VRB03KT 10SM CLR 37/M11 A2981 RMK AO2 SLP084 T03721111 58015
KHND 
38nm SW 
122056Z 33004KT 10SM CLR 37/M08 A2989 RMK AO2 SLP106 T03671083 58016
TAF
KLSV 
27nm W 
121500Z 1215/1321 VRB06KT 9999 SKC QNH2979INS BECMG 1221/1222 16012KT 9999 SKC QNH2975INS BECMG 1302/1303 VRB06KT 9999 SKC QNH2974INS BECMG 1320/1321 15010G15KT 9999 SKC QNH2978INS TX40/1223Z TN23/1313Z
NOTAMs
Click for the latest NOTAMs
NOTAMs are issued by the DoD/FAA and will open in a separate window not controlled by AirNav.

 

 
 

Would you like to see your business listed on this page?

 If your business provides an interesting product or service to pilots, flight crews, aircraft, or users of the Echo Bay Airport, you should consider listing it here.  To start the listing process, click on the button below
 
Add a business
 

Other Pages about Echo Bay Airport

Update a link
 
Copyright © AirNav, LLC. All rights reserved. Privacy Policy  Contact